createdAt,value
2022-09-29T00:00:02.371Z,93.10
2022-09-29T00:02:31.756Z,93.10
2022-09-29T00:04:58.608Z,93.10
2022-09-29T00:07:25.444Z,93.10
2022-09-29T00:09:52.412Z,93.20
2022-09-29T00:12:19.291Z,93.30
2022-09-29T00:14:47.924Z,93.20
2022-09-29T00:17:15.339Z,93.20
2022-09-29T00:19:44.779Z,93.20
2022-09-29T00:22:11.755Z,93.30
2022-09-29T00:24:38.809Z,93.30
2022-09-29T00:27:05.788Z,93.30
2022-09-29T00:30:42.760Z,93.30
2022-09-29T00:33:09.608Z,93.30
2022-09-29T00:35:36.479Z,93.30
2022-09-29T00:38:03.328Z,93.40
2022-09-29T00:41:14.648Z,93.40
2022-09-29T00:43:57.378Z,93.40
2022-09-29T00:46:30.072Z,93.40
2022-09-29T00:49:08.190Z,93.40
2022-09-29T00:51:37.503Z,93.40
2022-09-29T00:54:05.983Z,93.50
2022-09-29T00:56:34.048Z,93.50
2022-09-29T00:59:06.971Z,93.50
2022-09-29T01:01:33.906Z,93.50
2022-09-29T01:04:14.853Z,93.50
2022-09-29T01:06:53.355Z,93.50
2022-09-29T01:09:28.866Z,93.50
2022-09-29T01:12:00.265Z,93.50
2022-09-29T01:14:29.305Z,93.50
2022-09-29T01:16:56.124Z,93.50
2022-09-29T01:20:05.336Z,93.50
2022-09-29T01:22:53.348Z,93.50
2022-09-29T01:26:05.244Z,93.50
2022-09-29T01:28:56.387Z,93.50
2022-09-29T01:36:03.817Z,93.70
2022-09-29T01:39:08.035Z,93.60
2022-09-29T01:41:51.688Z,93.70
2022-09-29T01:44:39.432Z,93.70
2022-09-29T01:47:27.376Z,93.70
2022-09-29T01:54:11.141Z,93.70
2022-09-29T01:56:43.752Z,93.70
2022-09-29T02:03:27.702Z,93.90
2022-09-29T02:06:01.652Z,93.90
2022-09-29T02:08:37.502Z,93.90
2022-09-29T02:11:08.849Z,93.90
2022-09-29T02:13:47.656Z,93.80
2022-09-29T02:16:18.253Z,93.80
2022-09-29T02:18:59.429Z,93.80
2022-09-29T02:22:40.695Z,93.80
2022-09-29T02:25:11.027Z,93.80
2022-09-29T02:27:38.760Z,93.90
2022-09-29T02:30:43.421Z,94.00
2022-09-29T02:33:25.340Z,94.00
2022-09-29T02:36:08.559Z,93.90
2022-09-29T02:39:03.415Z,93.90
2022-09-29T02:41:59.321Z,93.90
2022-09-29T02:44:35.127Z,93.90
2022-09-29T02:47:14.939Z,93.90
2022-09-29T02:49:57.975Z,93.90
2022-09-29T02:52:33.994Z,93.90
2022-09-29T02:55:30.735Z,93.90
2022-09-29T02:58:13.238Z,94.00
2022-09-29T03:00:45.480Z,94.00
2022-09-29T03:03:12.418Z,94.00
2022-09-29T03:05:39.451Z,94.00
2022-09-29T03:08:06.288Z,94.00
2022-09-29T03:10:37.404Z,94.00
2022-09-29T03:13:04.720Z,94.10
2022-09-29T03:15:31.533Z,94.00
2022-09-29T03:17:58.376Z,94.00
2022-09-29T03:21:03.882Z,94.00
2022-09-29T03:23:30.721Z,94.10
2022-09-29T03:25:57.511Z,94.00
2022-09-29T03:28:24.388Z,94.10
2022-09-29T03:31:31.171Z,94.10
2022-09-29T03:33:58.080Z,94.10
2022-09-29T03:36:24.993Z,94.10
2022-09-29T03:38:51.834Z,94.10
2022-09-29T03:41:58.456Z,94.10
2022-09-29T03:44:25.351Z,94.10
2022-09-29T03:46:52.212Z,94.10
2022-09-29T03:49:20.483Z,94.10
2022-09-29T03:51:47.421Z,94.10
2022-09-29T03:54:14.266Z,94.10
2022-09-29T03:56:41.144Z,94.10
2022-09-29T03:59:12.508Z,94.20
2022-09-29T04:01:39.503Z,94.20
2022-09-29T04:04:08.997Z,94.10
2022-09-29T04:06:36.471Z,94.10
2022-09-29T04:09:03.866Z,94.20
2022-09-29T04:11:31.164Z,94.10
2022-09-29T04:13:58.012Z,94.10
2022-09-29T04:16:24.891Z,94.10
2022-09-29T04:18:51.733Z,94.20
2022-09-29T04:21:20.801Z,94.20
2022-09-29T04:23:48.156Z,94.20
2022-09-29T04:26:14.994Z,94.20
2022-09-29T04:28:42.016Z,94.20
2022-09-29T04:31:11.200Z,94.20
2022-09-29T04:33:39.295Z,94.20
2022-09-29T04:36:06.904Z,94.30
2022-09-29T04:38:33.775Z,94.40
2022-09-29T04:41:02.016Z,94.60
2022-09-29T04:43:28.902Z,94.80
2022-09-29T04:46:05.495Z,95.30
2022-09-29T04:48:35.602Z,95.40
2022-09-29T04:51:04.105Z,95.60
2022-09-29T04:53:31.243Z,95.80
2022-09-29T04:55:58.177Z,95.90
2022-09-29T04:58:25.021Z,96.00
2022-09-29T05:00:54.224Z,96.10
2022-09-29T05:03:21.138Z,96.20
2022-09-29T05:05:48.028Z,96.20
2022-09-29T05:08:14.918Z,96.30
2022-09-29T05:11:19.496Z,96.40
2022-09-29T05:13:48.659Z,96.50
2022-09-29T05:16:15.584Z,96.50
2022-09-29T05:18:42.579Z,96.60
2022-09-29T05:21:27.190Z,96.70
2022-09-29T05:23:54.976Z,96.80
2022-09-29T05:26:21.847Z,96.90
2022-09-29T05:28:49.104Z,97.00
2022-09-29T05:31:16.409Z,97.30
2022-09-29T05:33:43.598Z,97.10
2022-09-29T05:36:12.477Z,97.10
2022-09-29T05:38:40.040Z,97.20
2022-09-29T05:41:44.903Z,97.20
2022-09-29T05:44:11.703Z,97.30
2022-09-29T05:46:39.708Z,97.30
2022-09-29T05:49:06.579Z,97.40
2022-09-29T05:51:33.611Z,97.40
2022-09-29T05:54:01.445Z,97.40
2022-09-29T05:56:28.409Z,97.40
2022-09-29T05:58:55.517Z,97.40
2022-09-29T06:02:00.226Z,97.50
2022-09-29T06:04:27.121Z,97.60
2022-09-29T06:06:55.357Z,97.70
2022-09-29T06:09:27.027Z,97.80
2022-09-29T06:11:53.829Z,97.90
2022-09-29T06:14:20.741Z,98.00
2022-09-29T06:16:50.842Z,98.10
2022-09-29T06:19:17.789Z,98.20
2022-09-29T06:21:44.665Z,98.30
2022-09-29T06:24:11.600Z,98.40
2022-09-29T06:26:38.565Z,98.50
2022-09-29T06:29:05.496Z,98.60
2022-09-29T06:31:32.756Z,98.60
2022-09-29T06:34:01.485Z,98.70
2022-09-29T06:36:59.327Z,98.70
2022-09-29T06:40:11.065Z,98.80
2022-09-29T06:42:38.712Z,99.00
2022-09-29T06:45:06.347Z,99.00
2022-09-29T06:47:33.217Z,99.10
2022-09-29T06:50:07.310Z,99.10
2022-09-29T06:52:56.043Z,99.20
2022-09-29T06:55:25.705Z,99.20
2022-09-29T06:57:52.556Z,99.20
2022-09-29T07:00:19.748Z,99.20
2022-09-29T07:02:47.202Z,99.20
2022-09-29T07:05:14.248Z,99.20
2022-09-29T07:07:42.167Z,99.20
2022-09-29T07:10:11.586Z,99.20
2022-09-29T07:12:38.567Z,99.20
2022-09-29T07:15:05.785Z,99.20
2022-09-29T07:17:32.729Z,99.30
2022-09-29T07:20:04.220Z,99.30
2022-09-29T07:22:32.870Z,99.40
2022-09-29T07:24:59.817Z,99.60
2022-09-29T07:27:26.844Z,99.70
2022-09-29T07:30:12.830Z,99.70
2022-09-29T07:32:40.241Z,99.70
2022-09-29T07:35:08.119Z,99.60
2022-09-29T07:37:35.161Z,99.50
2022-09-29T07:40:40.768Z,99.60
2022-09-29T07:43:08.081Z,99.70
2022-09-29T07:45:35.177Z,99.70
2022-09-29T07:48:02.178Z,99.70
2022-09-29T07:50:35.669Z,99.70
2022-09-29T07:53:02.578Z,99.70
2022-09-29T07:55:29.838Z,99.70
2022-09-29T07:57:56.905Z,99.90
2022-09-29T08:00:24.071Z,99.90
2022-09-29T08:02:51.062Z,99.70
2022-09-29T08:05:18.434Z,99.50
2022-09-29T08:07:50.708Z,99.20
2022-09-29T08:10:18.025Z,99.20
2022-09-29T08:12:44.893Z,98.90
2022-09-29T08:15:11.787Z,98.90
2022-09-29T08:17:38.636Z,98.90
2022-09-29T08:20:06.312Z,98.70
2022-09-29T08:22:33.167Z,98.70
2022-09-29T08:24:59.969Z,98.70
2022-09-29T08:27:26.850Z,98.50
2022-09-29T08:30:18.534Z,98.50
2022-09-29T08:32:51.860Z,98.50
2022-09-29T08:35:18.709Z,98.50
2022-09-29T08:37:45.720Z,98.30
2022-09-29T08:40:33.827Z,98.00
2022-09-29T08:43:26.266Z,98.00
2022-09-29T08:46:04.790Z,97.60
2022-09-29T08:48:40.595Z,97.80
2022-09-29T08:51:42.676Z,97.60
2022-09-29T08:54:39.123Z,97.70
2022-09-29T08:57:15.354Z,97.60
2022-09-29T09:00:21.836Z,97.40
2022-09-29T09:03:09.408Z,96.50
2022-09-29T09:06:02.470Z,96.20
2022-09-29T09:08:53.508Z,95.90
2022-09-29T09:11:39.753Z,96.00
2022-09-29T09:14:31.519Z,96.20
2022-09-29T09:16:58.393Z,95.70
2022-09-29T09:19:57.061Z,95.70
2022-09-29T09:22:31.060Z,95.60
2022-09-29T09:25:02.923Z,95.40
2022-09-29T09:27:36.352Z,95.20
2022-09-29T09:30:13.613Z,95.10
2022-09-29T09:32:49.298Z,94.90
2022-09-29T09:35:23.514Z,94.10
2022-09-29T09:37:53.891Z,94.30
2022-09-29T09:40:26.539Z,94.20
2022-09-29T09:43:02.108Z,94.10
2022-09-29T09:45:42.275Z,93.90
2022-09-29T09:48:31.948Z,93.50
2022-09-29T09:51:02.284Z,92.50
2022-09-29T09:53:40.596Z,92.30
2022-09-29T09:56:16.556Z,91.80
2022-09-29T09:58:55.101Z,91.50
2022-09-29T10:01:22.279Z,91.00
2022-09-29T10:03:49.196Z,90.20
2022-09-29T10:06:16.330Z,89.90
2022-09-29T10:08:43.324Z,89.10
2022-09-29T10:11:23.733Z,88.10
2022-09-29T10:14:01.986Z,86.50
2022-09-29T10:16:41.393Z,85.60
2022-09-29T10:19:10.888Z,84.70
2022-09-29T10:21:41.939Z,84.40
2022-09-29T10:24:30.722Z,83.70
2022-09-29T10:27:01.717Z,83.10
2022-09-29T10:29:42.047Z,82.20
2022-09-29T10:32:15.019Z,80.60
2022-09-29T10:34:47.867Z,80.30
2022-09-29T10:37:35.783Z,79.50
2022-09-29T10:40:17.751Z,79.30
2022-09-29T10:42:48.280Z,79.30
2022-09-29T10:45:30.024Z,78.70
2022-09-29T10:48:04.173Z,78.10
2022-09-29T10:50:37.595Z,76.20
2022-09-29T10:53:34.005Z,75.80
2022-09-29T10:56:10.847Z,75.90
2022-09-29T10:58:58.540Z,77.10
2022-09-29T11:01:31.910Z,77.70
2022-09-29T11:04:14.683Z,76.80
2022-09-29T11:06:44.153Z,73.00
2022-09-29T11:09:15.929Z,72.00
2022-09-29T11:11:48.998Z,72.50
2022-09-29T11:14:30.806Z,72.80
2022-09-29T11:17:02.311Z,72.20
2022-09-29T11:20:25.722Z,71.60
2022-09-29T11:23:04.807Z,70.10
2022-09-29T11:25:51.565Z,69.40
2022-09-29T11:28:39.847Z,68.20
2022-09-29T11:31:45.627Z,67.10
2022-09-29T11:34:37.535Z,66.00
2022-09-29T11:37:26.482Z,65.10
2022-09-29T11:40:19.221Z,64.00
2022-09-29T11:42:52.808Z,64.40
2022-09-29T11:45:24.840Z,64.00
2022-09-29T11:48:09.777Z,63.50
2022-09-29T11:51:02.685Z,62.80
2022-09-29T11:53:38.413Z,63.80
2022-09-29T11:56:05.209Z,64.40
2022-09-29T11:59:04.479Z,64.70
2022-09-29T12:01:53.856Z,64.30
2022-09-29T12:04:26.535Z,64.70
2022-09-29T12:07:13.598Z,64.60
2022-09-29T12:10:13.976Z,64.70
2022-09-29T12:12:55.193Z,65.40
2022-09-29T12:15:41.110Z,65.90
2022-09-29T12:18:17.540Z,66.30
2022-09-29T12:20:50.072Z,66.90
2022-09-29T12:23:21.075Z,68.20
2022-09-29T12:26:11.111Z,68.70
2022-09-29T12:28:47.273Z,67.30
2022-09-29T12:31:28.722Z,65.30
2022-09-29T12:34:00.871Z,62.70
2022-09-29T12:36:44.070Z,61.20
2022-09-29T12:39:20.082Z,59.80
2022-09-29T12:41:56.157Z,57.70
2022-09-29T12:44:38.790Z,55.70
2022-09-29T12:47:13.740Z,55.60
2022-09-29T12:49:59.988Z,56.00
2022-09-29T12:52:34.122Z,56.80
2022-09-29T12:55:05.678Z,57.50
2022-09-29T12:57:40.182Z,58.40
2022-09-29T13:00:09.871Z,59.00
2022-09-29T13:03:04.448Z,59.80
2022-09-29T13:05:40.988Z,60.80
2022-09-29T13:08:26.213Z,60.50
2022-09-29T13:11:21.751Z,59.60
2022-09-29T13:14:24.001Z,58.10
2022-09-29T13:16:56.787Z,57.00
2022-09-29T13:19:45.797Z,55.60
2022-09-29T13:22:16.276Z,55.40
2022-09-29T13:25:15.167Z,53.80
2022-09-29T13:27:45.500Z,52.90
2022-09-29T13:30:12.977Z,52.50
2022-09-29T13:33:02.794Z,51.90
2022-09-29T13:35:37.804Z,51.60
2022-09-29T13:38:08.427Z,51.00
2022-09-29T13:40:35.454Z,50.70
2022-09-29T13:43:05.585Z,51.60
2022-09-29T13:45:35.572Z,52.40
2022-09-29T13:48:22.618Z,53.40
2022-09-29T13:50:59.597Z,54.40
2022-09-29T13:53:35.986Z,55.30
2022-09-29T13:56:02.800Z,55.80
2022-09-29T13:58:31.006Z,55.90
2022-09-29T14:01:00.956Z,53.80
2022-09-29T14:03:39.011Z,53.10
2022-09-29T14:06:39.851Z,52.00
2022-09-29T14:09:18.013Z,51.10
2022-09-29T14:11:50.725Z,51.90
2022-09-29T14:14:24.548Z,52.30
2022-09-29T14:16:53.664Z,51.70
2022-09-29T14:19:29.410Z,52.70
2022-09-29T14:21:59.533Z,51.70
2022-09-29T14:24:35.681Z,50.80
2022-09-29T14:27:15.179Z,51.00
2022-09-29T14:29:56.134Z,51.70
2022-09-29T14:32:49.884Z,52.70
2022-09-29T14:35:23.131Z,53.40
2022-09-29T14:38:04.939Z,54.30
2022-09-29T14:40:32.971Z,54.90
2022-09-29T14:43:13.374Z,54.90
2022-09-29T14:46:13.097Z,54.50
2022-09-29T14:49:22.174Z,54.10
2022-09-29T14:52:09.924Z,54.80
2022-09-29T14:54:46.588Z,54.20
2022-09-29T14:57:19.743Z,53.80
2022-09-29T15:00:01.653Z,53.70
2022-09-29T15:02:31.225Z,53.60
2022-09-29T15:04:58.535Z,52.40
2022-09-29T15:07:28.120Z,52.80
2022-09-29T15:09:58.155Z,53.40
2022-09-29T15:12:31.574Z,53.90
2022-09-29T15:15:00.289Z,54.10
2022-09-29T15:17:31.547Z,54.90
2022-09-29T15:20:21.999Z,54.60
2022-09-29T15:23:28.732Z,53.70
2022-09-29T15:28:31.944Z,54.00
2022-09-29T15:31:12.079Z,53.30
2022-09-29T15:33:42.462Z,52.00
2022-09-29T15:36:29.106Z,52.10
2022-09-29T15:39:06.160Z,52.30
2022-09-29T15:41:35.241Z,53.20
2022-09-29T15:44:17.970Z,53.80
2022-09-29T15:46:55.955Z,54.00
2022-09-29T15:49:23.808Z,54.00
2022-09-29T15:52:02.960Z,55.50
2022-09-29T15:57:44.186Z,54.30
2022-09-29T16:00:26.823Z,56.60
2022-09-29T16:03:14.617Z,58.40
2022-09-29T16:06:02.494Z,59.10
2022-09-29T16:08:31.976Z,60.00
2022-09-29T16:11:05.905Z,60.10
2022-09-29T16:13:35.952Z,59.40
2022-09-29T16:16:05.885Z,59.60
2022-09-29T16:18:52.897Z,60.20
2022-09-29T16:21:22.763Z,60.40
2022-09-29T16:24:03.759Z,60.90
2022-09-29T16:26:36.614Z,61.40
2022-09-29T16:29:15.256Z,61.90
2022-09-29T16:31:44.213Z,62.60
2022-09-29T16:34:25.828Z,63.00
2022-09-29T16:36:55.680Z,63.80
2022-09-29T16:39:26.126Z,64.20
2022-09-29T16:41:55.560Z,64.40
2022-09-29T16:44:30.323Z,64.60
2022-09-29T16:47:16.516Z,64.70
2022-09-29T16:49:51.331Z,64.80
2022-09-29T16:52:26.075Z,65.10
2022-09-29T16:54:55.635Z,65.40
2022-09-29T16:57:30.136Z,65.60
2022-09-29T17:00:05.489Z,65.90
2022-09-29T17:02:32.330Z,66.30
2022-09-29T17:05:01.255Z,66.60
2022-09-29T17:07:29.177Z,66.90
2022-09-29T17:10:33.637Z,67.30
2022-09-29T17:13:02.142Z,67.90
2022-09-29T17:15:30.454Z,68.50
2022-09-29T17:17:57.943Z,69.10
2022-09-29T17:20:29.921Z,69.90
2022-09-29T17:23:00.047Z,70.60
2022-09-29T17:25:27.213Z,71.20
2022-09-29T17:28:12.407Z,72.00
2022-09-29T17:30:44.474Z,72.80
2022-09-29T17:33:15.226Z,73.60
2022-09-29T17:35:55.800Z,74.20
2022-09-29T17:38:24.063Z,75.00
2022-09-29T17:41:04.039Z,75.50
2022-09-29T17:43:31.575Z,76.20
2022-09-29T17:45:59.893Z,76.60
2022-09-29T17:48:28.817Z,77.20
2022-09-29T17:51:20.356Z,77.80
2022-09-29T17:53:47.789Z,78.60
2022-09-29T17:56:22.626Z,79.00
2022-09-29T17:58:50.179Z,79.70
2022-09-29T18:01:21.785Z,80.10
2022-09-29T18:03:50.232Z,80.70
2022-09-29T18:06:24.998Z,81.10
2022-09-29T18:08:54.099Z,81.00
2022-09-29T18:11:59.900Z,81.60
2022-09-29T18:14:26.824Z,82.40
2022-09-29T18:16:55.464Z,82.70
2022-09-29T18:19:23.779Z,83.10
2022-09-29T18:21:51.028Z,83.70
2022-09-29T18:24:18.008Z,84.10
2022-09-29T18:26:45.767Z,84.60
2022-09-29T18:29:19.232Z,85.20
2022-09-29T18:31:46.271Z,85.90
2022-09-29T18:34:16.828Z,86.10
2022-09-29T18:36:45.341Z,86.40
2022-09-29T18:39:14.652Z,86.80
2022-09-29T18:41:41.575Z,87.20
2022-09-29T18:44:23.264Z,87.50
2022-09-29T18:46:50.349Z,87.40
2022-09-29T18:49:18.462Z,87.80
2022-09-29T18:51:45.704Z,88.30
2022-09-29T18:54:13.367Z,88.70
2022-09-29T18:56:40.260Z,89.00
2022-09-29T18:59:09.533Z,89.00
2022-09-29T19:01:36.626Z,89.00
2022-09-29T19:04:05.275Z,89.40
2022-09-29T19:06:32.333Z,89.30
2022-09-29T19:08:59.649Z,89.40
2022-09-29T19:11:27.820Z,89.90
2022-09-29T19:13:56.222Z,89.90
2022-09-29T19:16:25.831Z,90.20
2022-09-29T19:18:52.990Z,90.20
2022-09-29T19:21:21.122Z,90.40
2022-09-29T19:23:51.170Z,90.40
2022-09-29T19:26:22.497Z,90.70
2022-09-29T19:28:49.564Z,90.70
2022-09-29T19:31:20.116Z,90.70
2022-09-29T19:33:48.029Z,90.70
2022-09-29T19:36:20.711Z,90.70
2022-09-29T19:38:47.911Z,90.80
2022-09-29T19:41:23.716Z,90.70
2022-09-29T19:43:51.600Z,90.80
2022-09-29T19:46:19.984Z,90.70
2022-09-29T19:48:46.953Z,90.80
2022-09-29T19:51:34.745Z,90.70
2022-09-29T19:54:14.829Z,90.70
2022-09-29T19:56:45.452Z,90.70
2022-09-29T19:59:14.229Z,91.00
2022-09-29T20:01:44.612Z,90.90
2022-09-29T20:04:14.390Z,90.90
2022-09-29T20:06:41.995Z,90.90
2022-09-29T20:09:09.466Z,91.20
2022-09-29T20:11:37.974Z,91.20
2022-09-29T20:14:07.191Z,91.60
2022-09-29T20:16:36.775Z,91.60
2022-09-29T20:19:05.611Z,91.60
2022-09-29T20:21:33.065Z,91.60
2022-09-29T20:24:01.287Z,91.70
2022-09-29T20:26:28.745Z,91.80
2022-09-29T20:28:55.580Z,91.90
2022-09-29T20:31:23.896Z,91.90
2022-09-29T20:33:51.787Z,92.00
2022-09-29T20:36:19.078Z,91.90
2022-09-29T20:38:50.878Z,92.00
2022-09-29T20:41:19.963Z,92.00
2022-09-29T20:43:49.485Z,92.10
2022-09-29T20:46:16.634Z,92.10
2022-09-29T20:48:44.274Z,92.10
2022-09-29T20:51:49.062Z,92.20
2022-09-29T20:54:16.455Z,92.20
2022-09-29T20:56:43.303Z,92.20
2022-09-29T20:59:16.078Z,92.30
2022-09-29T21:01:44.685Z,92.30
2022-09-29T21:04:18.176Z,92.40
2022-09-29T21:06:50.617Z,92.40
2022-09-29T21:09:22.179Z,92.50
2022-09-29T21:11:54.227Z,92.50
2022-09-29T21:14:24.387Z,92.60
2022-09-29T21:16:53.131Z,92.60
2022-09-29T21:19:26.537Z,92.70
2022-09-29T21:21:55.036Z,92.70
2022-09-29T21:24:22.008Z,92.80
2022-09-29T21:26:49.070Z,92.80
2022-09-29T21:29:18.136Z,92.80
2022-09-29T21:31:45.791Z,92.90
2022-09-29T21:34:14.208Z,92.90
2022-09-29T21:36:42.152Z,92.90
2022-09-29T21:39:09.850Z,92.90
2022-09-29T21:41:38.935Z,93.00
2022-09-29T21:44:11.502Z,93.10
2022-09-29T21:46:38.905Z,93.40
2022-09-29T21:49:08.466Z,93.10
2022-09-29T21:51:41.521Z,93.20
2022-09-29T21:54:12.294Z,93.20
2022-09-29T21:56:41.176Z,93.30
2022-09-29T21:59:28.179Z,93.40
2022-09-29T22:01:55.297Z,93.40
2022-09-29T22:04:23.145Z,93.40
2022-09-29T22:06:50.172Z,93.40
2022-09-29T22:09:55.152Z,93.30
2022-09-29T22:12:22.936Z,93.20
2022-09-29T22:14:49.724Z,93.00
2022-09-29T22:17:16.572Z,93.00
2022-09-29T22:19:43.714Z,92.90
2022-09-29T22:22:10.511Z,92.80
2022-09-29T22:24:37.329Z,92.80
2022-09-29T22:27:05.102Z,92.80
2022-09-29T22:29:32.090Z,92.70
2022-09-29T22:31:58.988Z,92.70
2022-09-29T22:34:25.956Z,92.70
2022-09-29T22:36:52.787Z,92.80
2022-09-29T22:39:19.998Z,92.90
2022-09-29T22:41:46.890Z,93.10
2022-09-29T22:44:13.692Z,93.20
2022-09-29T22:46:40.530Z,93.30
2022-09-29T22:49:07.438Z,93.50
2022-09-29T22:51:34.375Z,93.60
2022-09-29T22:54:01.659Z,93.70
2022-09-29T22:56:29.219Z,93.80
2022-09-29T22:59:01.181Z,93.80
2022-09-29T23:02:06.132Z,94.00
2022-09-29T23:04:33.748Z,94.10
2022-09-29T23:07:02.101Z,94.10
2022-09-29T23:09:30.225Z,94.20
2022-09-29T23:11:57.069Z,94.20
2022-09-29T23:14:23.918Z,94.30
2022-09-29T23:16:50.786Z,94.30
2022-09-29T23:19:19.852Z,94.40
2022-09-29T23:21:46.856Z,94.50
2022-09-29T23:24:13.671Z,94.50
2022-09-29T23:26:40.472Z,94.50
2022-09-29T23:29:07.822Z,94.50
2022-09-29T23:31:35.240Z,94.60
2022-09-29T23:34:02.213Z,94.70
2022-09-29T23:36:31.023Z,94.70
2022-09-29T23:39:10.290Z,94.80
2022-09-29T23:41:39.829Z,94.80
2022-09-29T23:44:06.792Z,94.90
2022-09-29T23:46:35.909Z,94.90
2022-09-29T23:49:08.968Z,95.00
2022-09-29T23:51:41.460Z,95.00
2022-09-29T23:54:09.774Z,95.00
2022-09-29T23:56:36.842Z,95.00
2022-09-29T23:59:05.076Z,95.10
